createdAt,value
2019-05-13T00:02:34.486Z,3.33
2019-05-13T00:05:08.147Z,2.60
2019-05-13T00:07:43.783Z,2.20
2019-05-13T00:10:18.099Z,3.10
2019-05-13T00:12:53.980Z,2.53
2019-05-13T00:15:30.043Z,2.63
2019-05-13T00:18:00.614Z,3.43
2019-05-13T00:20:34.099Z,3.40
2019-05-13T00:23:06.311Z,2.13
2019-05-13T00:25:38.197Z,3.77
2019-05-13T00:28:08.858Z,2.77
2019-05-13T00:30:39.858Z,1.87
2019-05-13T00:33:11.202Z,2.00
2019-05-13T00:35:44.038Z,1.90
2019-05-13T00:38:14.329Z,2.40
2019-05-13T00:40:45.968Z,2.53
2019-05-13T00:43:16.974Z,1.90
2019-05-13T00:45:48.254Z,2.07
2019-05-13T00:48:29.344Z,1.67
2019-05-13T00:50:58.777Z,2.47
2019-05-13T00:53:29.675Z,2.37
2019-05-13T00:56:01.394Z,1.73
2019-05-13T00:58:36.674Z,2.03
2019-05-13T01:01:09.257Z,2.07
2019-05-13T01:03:44.029Z,2.33
2019-05-13T01:06:14.239Z,1.90
2019-05-13T01:08:49.438Z,2.73
2019-05-13T01:11:25.543Z,1.63
2019-05-13T01:13:56.950Z,2.03
2019-05-13T01:16:28.090Z,2.23
2019-05-13T01:19:05.171Z,1.90
2019-05-13T01:21:43.479Z,1.80
2019-05-13T01:24:17.358Z,2.77
2019-05-13T01:26:48.335Z,3.37
2019-05-13T01:29:20.663Z,1.90
2019-05-13T01:31:55.322Z,1.30
2019-05-13T01:34:26.405Z,1.90
2019-05-13T01:36:57.594Z,2.13
2019-05-13T01:39:31.725Z,1.50
2019-05-13T01:42:03.640Z,2.10
2019-05-13T01:44:34.948Z,1.90
2019-05-13T01:47:07.093Z,2.37
2019-05-13T01:49:41.014Z,1.80
2019-05-13T01:52:18.922Z,1.93
2019-05-13T01:54:51.547Z,2.43
2019-05-13T01:57:23.839Z,1.47
2019-05-13T01:59:55.430Z,2.20
2019-05-13T02:02:33.166Z,2.77
2019-05-13T02:05:05.087Z,1.43
2019-05-13T02:07:36.003Z,1.60
2019-05-13T02:10:14.473Z,1.47
2019-05-13T02:12:45.573Z,1.40
2019-05-13T02:15:17.045Z,1.30
2019-05-13T02:17:48.119Z,1.40
2019-05-13T02:20:19.930Z,1.43
2019-05-13T02:22:55.062Z,1.40
2019-05-13T02:25:25.904Z,1.03
2019-05-13T02:27:57.439Z,1.70
2019-05-13T02:30:28.195Z,1.90
2019-05-13T02:33:03.090Z,1.37
2019-05-13T02:35:43.370Z,1.37
2019-05-13T02:38:24.036Z,1.10
2019-05-13T02:40:52.393Z,1.30
2019-05-13T02:43:23.224Z,2.63
2019-05-13T02:45:56.243Z,2.43
2019-05-13T02:48:26.880Z,1.77
2019-05-13T02:50:57.620Z,1.50
2019-05-13T02:53:27.934Z,1.20
2019-05-13T02:56:02.663Z,1.10
2019-05-13T02:58:33.387Z,1.80
2019-05-13T03:01:04.963Z,1.80
2019-05-13T03:03:35.370Z,1.23
2019-05-13T03:06:07.027Z,1.20
2019-05-13T03:08:46.437Z,1.83
2019-05-13T03:11:12.627Z,2.17
2019-05-13T03:13:43.546Z,1.53
2019-05-13T03:16:45.611Z,1.90
2019-05-13T03:19:16.443Z,1.27
2019-05-13T03:21:52.562Z,1.67
2019-05-13T03:24:25.495Z,1.93
2019-05-13T03:26:57.246Z,1.13
2019-05-13T03:29:28.402Z,1.50
2019-05-13T03:31:58.821Z,1.30
2019-05-13T03:34:35.590Z,1.50
2019-05-13T03:37:06.659Z,1.63
2019-05-13T03:39:43.503Z,2.90
2019-05-13T03:42:15.246Z,1.30
2019-05-13T03:44:52.516Z,1.20
2019-05-13T03:47:27.692Z,1.53
2019-05-13T03:50:03.625Z,2.13
2019-05-13T03:52:33.919Z,0.90
2019-05-13T03:55:05.710Z,1.00
2019-05-13T03:57:42.341Z,1.53
2019-05-13T04:00:14.846Z,4.03
2019-05-13T04:02:51.928Z,1.23
2019-05-13T04:05:28.574Z,3.23
2019-05-13T04:08:02.826Z,1.27
2019-05-13T04:10:33.575Z,1.63
2019-05-13T04:13:12.606Z,0.97
2019-05-13T04:15:43.892Z,1.43
2019-05-13T04:18:14.319Z,1.10
2019-05-13T04:20:45.024Z,1.00
2019-05-13T04:23:16.050Z,0.90
2019-05-13T04:25:53.631Z,1.30
2019-05-13T04:28:22.667Z,1.57
2019-05-13T04:30:54.202Z,1.10
2019-05-13T04:33:25.678Z,1.17
2019-05-13T04:36:02.601Z,1.40
2019-05-13T04:38:33.395Z,1.20
2019-05-13T04:41:05.553Z,1.03
2019-05-13T04:43:35.855Z,1.77
2019-05-13T04:46:09.055Z,2.07
2019-05-13T04:48:44.845Z,2.27
2019-05-13T04:51:16.259Z,2.50
2019-05-13T04:53:53.292Z,2.30
2019-05-13T04:56:22.406Z,2.93
2019-05-13T04:58:54.516Z,2.40
2019-05-13T05:02:12.990Z,3.13
2019-05-13T05:04:52.637Z,2.37
2019-05-13T05:08:05.382Z,2.37
2019-05-13T05:11:16.658Z,3.67
2019-05-13T05:17:55.087Z,3.57
2019-05-13T05:20:42.363Z,3.27
2019-05-13T05:23:46.070Z,3.30
2019-05-13T05:26:57.669Z,4.10
2019-05-13T05:30:15.610Z,6.23
2019-05-13T05:33:36.513Z,4.20
2019-05-13T05:36:45.910Z,4.70
2019-05-13T05:39:27.859Z,4.00
2019-05-13T05:42:02.011Z,4.43
2019-05-13T05:44:33.009Z,3.73
2019-05-13T05:47:07.302Z,3.70
2019-05-13T05:49:41.073Z,2.53
2019-05-13T05:52:12.482Z,2.93
2019-05-13T05:54:44.033Z,3.03
2019-05-13T05:57:14.911Z,5.37
2019-05-13T05:59:45.265Z,2.80
2019-05-13T06:02:19.020Z,3.17
2019-05-13T06:04:52.101Z,3.50
2019-05-13T06:07:23.749Z,7.47
2019-05-13T06:09:57.432Z,8.33
2019-05-13T06:12:31.520Z,9.53
2019-05-13T06:15:06.057Z,8.60
2019-05-13T06:17:41.325Z,8.87
2019-05-13T06:20:13.421Z,6.27
2019-05-13T06:22:44.483Z,5.93
2019-05-13T06:25:15.124Z,7.57
2019-05-13T06:27:48.537Z,6.17
2019-05-13T06:30:22.014Z,8.00
2019-05-13T06:32:55.701Z,7.00
2019-05-13T06:35:26.200Z,6.60
2019-05-13T06:37:57.130Z,4.83
2019-05-13T06:40:27.514Z,6.17
2019-05-13T06:43:01.487Z,7.10
2019-05-13T06:45:31.750Z,4.50
2019-05-13T06:48:02.862Z,6.63
2019-05-13T06:50:33.262Z,4.57
2019-05-13T06:53:08.450Z,7.03
2019-05-13T06:55:37.254Z,6.40
2019-05-13T06:58:11.437Z,5.70
2019-05-13T07:00:43.129Z,6.07
2019-05-13T07:03:14.133Z,7.07
2019-05-13T07:05:44.408Z,8.63
2019-05-13T07:08:15.413Z,8.43
2019-05-13T07:10:48.683Z,4.80
2019-05-13T07:13:21.630Z,9.57
2019-05-13T07:15:52.240Z,9.27
2019-05-13T07:18:25.261Z,9.93
2019-05-13T07:20:55.583Z,7.47
2019-05-13T07:23:31.888Z,6.27
2019-05-13T07:26:02.163Z,6.53
2019-05-13T07:28:34.445Z,7.30
2019-05-13T07:31:08.056Z,4.10
2019-05-13T07:33:42.947Z,7.23
2019-05-13T07:36:14.034Z,4.47
2019-05-13T07:38:45.814Z,28.73
2019-05-13T07:41:32.176Z,6.10
2019-05-13T07:43:51.726Z,6.43
2019-05-13T07:46:26.891Z,8.00
2019-05-13T07:49:01.917Z,7.30
2019-05-13T07:51:34.395Z,12.03
2019-05-13T07:54:05.766Z,5.47
2019-05-13T07:56:42.606Z,5.30
2019-05-13T07:59:13.666Z,4.70
2019-05-13T08:01:44.745Z,6.27
2019-05-13T08:04:22.241Z,7.40
2019-05-13T08:06:52.933Z,6.67
2019-05-13T08:09:23.318Z,4.30
2019-05-13T08:12:14.543Z,5.57
2019-05-13T08:14:45.583Z,5.77
2019-05-13T08:17:16.173Z,5.43
2019-05-13T08:19:47.730Z,7.33
2019-05-13T08:22:22.138Z,5.53
2019-05-13T08:24:54.418Z,7.43
2019-05-13T08:27:34.748Z,5.67
2019-05-13T08:30:01.647Z,5.37
2019-05-13T08:32:41.967Z,9.07
2019-05-13T08:35:14.366Z,7.10
2019-05-13T08:37:45.055Z,7.10
2019-05-13T08:40:23.315Z,7.80
2019-05-13T08:42:57.493Z,4.33
2019-05-13T08:45:34.059Z,5.90
2019-05-13T08:48:08.371Z,5.20
2019-05-13T08:50:43.954Z,4.33
2019-05-13T08:53:14.918Z,7.90
2019-05-13T08:55:51.716Z,4.17
2019-05-13T08:58:26.293Z,5.67
2019-05-13T09:00:59.112Z,5.97
2019-05-13T09:03:32.305Z,5.67
2019-05-13T09:06:04.922Z,6.30
2019-05-13T09:08:42.593Z,4.97
2019-05-13T09:11:13.576Z,5.77
2019-05-13T09:13:43.974Z,3.73
2019-05-13T09:16:16.248Z,3.50
2019-05-13T09:18:48.325Z,4.73
2019-05-13T09:21:19.241Z,5.00
2019-05-13T09:23:57.045Z,7.03
2019-05-13T09:26:27.755Z,4.57
2019-05-13T09:29:01.710Z,4.43
2019-05-13T09:31:33.550Z,5.50
2019-05-13T09:34:03.932Z,5.03
2019-05-13T09:36:34.931Z,6.83
2019-05-13T09:39:06.820Z,5.53
2019-05-13T09:41:41.026Z,5.80
2019-05-13T09:44:12.124Z,6.53
2019-05-13T09:46:42.901Z,6.13
2019-05-13T09:49:19.716Z,9.10
2019-05-13T09:51:46.724Z,7.50
2019-05-13T09:54:17.844Z,5.10
2019-05-13T09:56:48.987Z,5.03
2019-05-13T09:59:22.311Z,7.07
2019-05-13T10:01:58.761Z,7.37
2019-05-13T10:04:31.389Z,5.23
2019-05-13T10:07:02.731Z,4.23
2019-05-13T10:09:35.390Z,7.43
2019-05-13T10:12:07.523Z,6.97
2019-05-13T10:14:38.318Z,4.47
2019-05-13T10:17:09.128Z,5.90
2019-05-13T10:19:42.047Z,4.83
2019-05-13T10:22:13.395Z,7.57
2019-05-13T10:24:44.462Z,5.87
2019-05-13T10:27:18.781Z,5.93
2019-05-13T10:29:47.683Z,6.53
2019-05-13T10:32:18.335Z,6.47
2019-05-13T10:34:52.022Z,3.80
2019-05-13T10:37:23.458Z,4.40
2019-05-13T10:39:54.415Z,5.57
2019-05-13T10:42:24.706Z,4.93
2019-05-13T10:44:55.764Z,3.90
2019-05-13T10:47:28.321Z,4.10
2019-05-13T10:50:02.870Z,4.27
2019-05-13T10:52:33.019Z,3.67
2019-05-13T10:55:04.030Z,4.83
2019-05-13T10:57:38.850Z,4.17
2019-05-13T11:00:12.275Z,7.00
2019-05-13T11:02:44.424Z,4.20
2019-05-13T11:05:22.912Z,4.30
2019-05-13T11:07:54.725Z,5.67
2019-05-13T11:10:36.019Z,4.33
2019-05-13T11:13:10.642Z,3.90
2019-05-13T11:15:45.286Z,5.43
2019-05-13T11:18:19.458Z,4.70
2019-05-13T11:20:50.858Z,7.47
2019-05-13T11:23:23.347Z,5.03
2019-05-13T11:25:55.408Z,3.67
2019-05-13T11:28:26.323Z,4.40
2019-05-13T11:30:59.771Z,4.03
2019-05-13T11:33:31.889Z,3.47
2019-05-13T11:36:03.403Z,4.10
2019-05-13T11:38:34.193Z,3.73
2019-05-13T11:41:04.967Z,4.87
2019-05-13T11:43:38.353Z,4.77
2019-05-13T11:46:09.098Z,3.80
2019-05-13T11:48:42.596Z,3.23
2019-05-13T11:51:14.137Z,2.63
2019-05-13T11:53:46.242Z,5.73
2019-05-13T11:56:16.583Z,5.83
2019-05-13T12:01:22.916Z,3.87
2019-05-13T12:03:56.868Z,4.33
2019-05-13T12:06:30.075Z,4.47
2019-05-13T12:09:03.980Z,3.50
2019-05-13T12:11:34.505Z,3.93
2019-05-13T12:14:05.187Z,3.73
2019-05-13T12:16:35.869Z,4.23
2019-05-13T12:19:07.774Z,4.40
2019-05-13T12:21:45.308Z,3.93
2019-05-13T12:24:12.723Z,5.63
2019-05-13T12:26:44.747Z,5.37
2019-05-13T12:29:18.906Z,3.63
2019-05-13T12:31:52.706Z,3.63
2019-05-13T12:34:25.104Z,5.07
2019-05-13T12:36:55.771Z,3.47
2019-05-13T12:39:32.081Z,3.23
2019-05-13T12:42:03.461Z,4.70
2019-05-13T12:44:59.745Z,3.93
2019-05-13T12:47:12.043Z,4.30
2019-05-13T12:49:44.163Z,4.10
2019-05-13T12:52:17.565Z,2.97
2019-05-13T12:54:57.395Z,3.00
2019-05-13T12:57:32.457Z,2.53
2019-05-13T13:00:02.554Z,2.63
2019-05-13T13:02:37.305Z,4.10
2019-05-13T13:05:19.698Z,2.20
2019-05-13T13:08:12.070Z,3.60
2019-05-13T13:10:18.365Z,2.87
2019-05-13T13:12:49.014Z,3.43
2019-05-13T13:15:37.138Z,4.50
2019-05-13T13:17:57.539Z,3.47
2019-05-13T13:20:33.555Z,2.77
2019-05-13T13:23:04.836Z,3.83
2019-05-13T13:25:42.481Z,3.83
2019-05-13T13:28:18.851Z,2.23
2019-05-13T13:30:44.777Z,2.77
2019-05-13T13:33:15.403Z,2.70
2019-05-13T13:35:54.989Z,4.07
2019-05-13T13:38:25.198Z,3.57
2019-05-13T13:40:57.795Z,4.43
2019-05-13T13:43:28.439Z,4.43
2019-05-13T13:46:31.174Z,3.37
2019-05-13T13:48:37.435Z,8.93
2019-05-13T13:51:14.274Z,6.33
2019-05-13T13:53:47.048Z,3.67
2019-05-13T13:56:17.866Z,5.13
2019-05-13T13:58:49.332Z,6.53
2019-05-13T14:01:28.757Z,4.57
2019-05-13T14:04:04.167Z,5.10
2019-05-13T14:06:30.813Z,6.03
2019-05-13T14:09:12.848Z,4.20
2019-05-13T14:11:46.469Z,4.37
2019-05-13T14:14:17.591Z,3.90
2019-05-13T14:16:51.842Z,7.87
2019-05-13T14:19:22.340Z,5.83
2019-05-13T14:21:54.555Z,6.40
2019-05-13T14:24:33.240Z,5.20
2019-05-13T14:27:05.315Z,4.47
2019-05-13T14:29:43.074Z,4.70
2019-05-13T14:32:15.330Z,5.47
2019-05-13T14:34:51.942Z,3.47
2019-05-13T14:37:24.079Z,3.73
2019-05-13T14:39:56.678Z,6.37
2019-05-13T14:42:28.625Z,5.60
2019-05-13T14:45:02.055Z,5.53
2019-05-13T14:47:36.943Z,3.83
2019-05-13T14:50:12.231Z,4.30
2019-05-13T14:52:45.940Z,4.60
2019-05-13T14:55:20.934Z,6.27
2019-05-13T14:57:52.551Z,5.83
2019-05-13T15:00:32.497Z,5.20
2019-05-13T15:03:03.092Z,5.37
2019-05-13T15:05:33.604Z,9.13
2019-05-13T15:08:05.420Z,6.73
2019-05-13T15:10:37.854Z,8.00
2019-05-13T15:13:08.543Z,11.67
2019-05-13T15:15:42.194Z,5.40
2019-05-13T15:18:13.499Z,10.07
2019-05-13T15:20:44.684Z,5.80
2019-05-13T15:23:16.109Z,12.33
2019-05-13T15:25:51.437Z,10.80
2019-05-13T15:28:31.614Z,6.73
2019-05-13T15:31:06.342Z,6.63
2019-05-13T15:33:37.542Z,7.63
2019-05-13T15:36:08.680Z,5.77
2019-05-13T15:38:41.325Z,6.63
2019-05-13T15:41:15.589Z,7.47
2019-05-13T15:43:46.706Z,6.17
2019-05-13T15:46:22.014Z,6.43
2019-05-13T15:48:56.950Z,4.87
2019-05-13T15:51:31.529Z,5.27
2019-05-13T15:54:02.697Z,6.10
2019-05-13T15:56:34.059Z,5.80
2019-05-13T15:59:04.837Z,7.60
2019-05-13T16:01:36.273Z,4.90
2019-05-13T16:04:08.411Z,5.90
2019-05-13T16:06:41.830Z,8.50
2019-05-13T16:09:13.459Z,4.47
2019-05-13T16:11:48.373Z,4.53
2019-05-13T16:14:21.939Z,4.93
2019-05-13T16:16:52.113Z,5.70
2019-05-13T16:19:22.527Z,5.10
2019-05-13T16:21:53.263Z,5.00
2019-05-13T16:24:25.946Z,5.20
2019-05-13T16:26:59.055Z,5.67
2019-05-13T16:29:31.625Z,4.87
2019-05-13T16:32:02.618Z,5.00
2019-05-13T16:34:33.118Z,4.37
2019-05-13T16:37:11.645Z,6.50
2019-05-13T16:39:42.367Z,5.20
2019-05-13T16:42:18.008Z,4.80
2019-05-13T16:44:54.876Z,5.90
2019-05-13T16:47:26.124Z,4.40
2019-05-13T16:50:02.624Z,7.40
2019-05-13T16:52:36.398Z,5.43
2019-05-13T16:55:12.818Z,6.00
2019-05-13T16:57:45.045Z,5.57
2019-05-13T17:00:18.854Z,5.53
2019-05-13T17:02:51.830Z,5.13
2019-05-13T17:05:29.317Z,4.77
2019-05-13T17:08:02.059Z,6.10
2019-05-13T17:10:32.854Z,5.23
2019-05-13T17:13:03.671Z,5.47
2019-05-13T17:15:34.460Z,5.17
2019-05-13T17:18:11.724Z,5.47
2019-05-13T17:20:41.335Z,5.43
2019-05-13T17:23:12.551Z,5.67
2019-05-13T17:25:43.530Z,5.00
2019-05-13T17:28:15.169Z,6.63
2019-05-13T17:30:48.894Z,5.80
2019-05-13T17:33:24.915Z,5.63
2019-05-13T17:35:55.489Z,6.50
2019-05-13T17:38:32.425Z,6.40
2019-05-13T17:41:02.213Z,6.63
2019-05-13T17:43:33.356Z,4.80
2019-05-13T17:46:04.087Z,6.50
2019-05-13T17:48:35.014Z,5.90
2019-05-13T17:51:06.178Z,5.03
2019-05-13T17:53:37.935Z,5.67
2019-05-13T17:56:11.261Z,5.90
2019-05-13T17:58:42.690Z,7.43
2019-05-13T18:01:13.823Z,5.53
2019-05-13T18:03:45.182Z,6.37
2019-05-13T18:06:17.389Z,7.30
2019-05-13T18:08:51.783Z,7.73
2019-05-13T18:11:24.550Z,8.67
2019-05-13T18:13:56.324Z,5.93
2019-05-13T18:16:28.407Z,7.27
2019-05-13T18:19:01.451Z,8.27
2019-05-13T18:21:33.087Z,7.77
2019-05-13T18:24:04.103Z,8.60
2019-05-13T18:26:37.813Z,6.53
2019-05-13T18:29:09.021Z,6.37
2019-05-13T18:31:42.017Z,10.60
2019-05-13T18:34:15.788Z,5.73
2019-05-13T18:36:48.687Z,8.10
2019-05-13T18:39:22.445Z,5.20
2019-05-13T18:41:54.675Z,7.00
2019-05-13T18:44:27.851Z,6.80
2019-05-13T18:47:01.548Z,6.80
2019-05-13T18:49:39.663Z,6.83
2019-05-13T18:52:13.451Z,6.43
2019-05-13T18:54:45.135Z,5.47
2019-05-13T18:57:21.285Z,5.70
2019-05-13T18:59:54.475Z,8.07
2019-05-13T19:02:26.772Z,6.27
2019-05-13T19:04:57.406Z,5.47
2019-05-13T19:07:31.584Z,7.03
2019-05-13T19:10:05.552Z,6.60
2019-05-13T19:12:38.350Z,4.87
2019-05-13T19:15:11.377Z,5.90
2019-05-13T19:17:42.525Z,5.70
2019-05-13T19:20:13.558Z,6.43
2019-05-13T19:22:45.069Z,5.20
2019-05-13T19:25:16.054Z,5.97
2019-05-13T19:27:46.433Z,5.30
2019-05-13T19:30:18.428Z,5.70
2019-05-13T19:32:52.061Z,6.43
2019-05-13T19:35:24.641Z,5.17
2019-05-13T19:38:01.610Z,5.23
2019-05-13T19:40:31.328Z,5.73
2019-05-13T19:43:02.686Z,5.13
2019-05-13T19:45:36.258Z,6.43
2019-05-13T19:48:11.910Z,4.93
2019-05-13T19:50:47.195Z,5.20
2019-05-13T19:53:18.220Z,5.30
2019-05-13T19:55:49.157Z,5.17
2019-05-13T19:58:21.639Z,5.53
2019-05-13T20:00:53.304Z,4.77
2019-05-13T20:03:24.738Z,5.60
2019-05-13T20:05:57.025Z,6.97
2019-05-13T20:08:27.927Z,4.90
2019-05-13T20:11:03.970Z,4.83
2019-05-13T20:13:37.868Z,5.33
2019-05-13T20:16:12.390Z,7.63
2019-05-13T20:18:44.758Z,6.13
2019-05-13T20:21:17.903Z,6.17
2019-05-13T20:23:48.235Z,7.13
2019-05-13T20:26:21.711Z,6.43
2019-05-13T20:28:55.258Z,5.63
2019-05-13T20:31:26.371Z,5.90
2019-05-13T20:33:57.333Z,10.43
2019-05-13T20:36:28.151Z,6.23
2019-05-13T20:38:58.933Z,6.00
2019-05-13T20:41:33.781Z,7.53
2019-05-13T20:44:05.731Z,7.47
2019-05-13T20:46:42.182Z,6.60
2019-05-13T20:49:14.479Z,6.13
2019-05-13T20:51:45.968Z,6.87
2019-05-13T20:54:17.068Z,7.57
2019-05-13T20:56:48.223Z,6.53
2019-05-13T20:59:21.329Z,8.30
2019-05-13T21:01:51.885Z,8.63
2019-05-13T21:04:22.374Z,8.10
2019-05-13T21:06:53.266Z,7.77
2019-05-13T21:09:23.662Z,9.00
2019-05-13T21:11:54.976Z,7.53
2019-05-13T21:14:25.676Z,9.00
2019-05-13T21:17:01.501Z,7.30
2019-05-13T21:19:39.201Z,6.70
2019-05-13T21:22:04.494Z,6.17
2019-05-13T21:24:35.017Z,7.77
2019-05-13T21:27:11.883Z,5.97
2019-05-13T21:29:43.057Z,6.47
2019-05-13T21:32:14.046Z,7.83
2019-05-13T21:34:44.439Z,5.43
2019-05-13T21:37:15.210Z,6.17
2019-05-13T21:39:45.490Z,6.23
2019-05-13T21:42:16.482Z,7.57
2019-05-13T21:44:46.919Z,5.70
2019-05-13T21:47:17.834Z,6.27
2019-05-13T21:49:52.550Z,6.37
2019-05-13T21:52:24.429Z,5.70
2019-05-13T21:54:57.643Z,5.90
2019-05-13T21:57:33.053Z,7.43
2019-05-13T22:00:05.514Z,6.00
2019-05-13T22:02:40.787Z,5.17
2019-05-13T22:05:12.471Z,6.50
2019-05-13T22:07:44.776Z,5.37
2019-05-13T22:10:21.524Z,6.87
2019-05-13T22:12:54.938Z,5.40
2019-05-13T22:15:26.382Z,4.80
2019-05-13T22:17:57.686Z,5.13
2019-05-13T22:20:47.400Z,5.53
2019-05-13T22:23:11.950Z,5.00
2019-05-13T22:25:48.007Z,6.43
2019-05-13T22:28:19.158Z,5.83
2019-05-13T22:30:51.758Z,3.77
2019-05-13T22:33:24.195Z,7.13
2019-05-13T22:36:01.865Z,6.30
2019-05-13T22:38:34.466Z,4.93
2019-05-13T22:41:05.306Z,5.13
2019-05-13T22:43:52.383Z,4.40
2019-05-13T22:46:14.223Z,4.70
2019-05-13T22:48:45.490Z,4.37
2019-05-13T22:51:17.254Z,6.47
2019-05-13T22:53:48.394Z,4.57
2019-05-13T22:56:19.245Z,4.73
2019-05-13T22:58:51.670Z,4.97
2019-05-13T23:01:23.053Z,5.43
2019-05-13T23:03:54.198Z,4.73
2019-05-13T23:06:28.481Z,4.50
2019-05-13T23:09:01.602Z,5.67
2019-05-13T23:11:34.579Z,6.10
2019-05-13T23:14:10.944Z,4.23
2019-05-13T23:16:42.177Z,4.70
2019-05-13T23:19:18.878Z,3.87
2019-05-13T23:21:53.108Z,3.20
2019-05-13T23:24:24.248Z,4.23
2019-05-13T23:26:54.950Z,3.87
2019-05-13T23:29:25.575Z,4.90
2019-05-13T23:31:55.961Z,4.77
2019-05-13T23:34:31.721Z,6.47
2019-05-13T23:37:05.910Z,4.60
2019-05-13T23:39:36.629Z,4.57
2019-05-13T23:42:07.035Z,4.20
2019-05-13T23:44:38.282Z,3.70
2019-05-13T23:47:11.703Z,4.03
2019-05-13T23:49:43.063Z,4.70
2019-05-13T23:52:13.394Z,3.80
2019-05-13T23:54:44.411Z,5.30
2019-05-13T23:57:17.080Z,3.90
2019-05-13T23:59:51.055Z,4.20
